Map

Track Data

SID SEASON NUMBER BASIN SUBBASIN NAME ISO_TIME NATURE LAT LON WMO_WIND WMO_PRES WMO_AGENCY TRACK_TYPE DIST2LAND LANDFALL IFLAG USA_AGENCY USA_ATCF_ID USA_LAT USA_LON USA_RECORD USA_STATUS USA_WIND USA_PRES USA_SSHS USA_R34_NE USA_R34_SE USA_R34_SW USA_R34_NW USA_R50_NE USA_R50_SE USA_R50_SW USA_R50_NW USA_R64_NE USA_R64_SE USA_R64_SW USA_R64_NW USA_POCI USA_ROCI USA_RMW USA_EYE TOKYO_LAT TOKYO_LON TOKYO_GRADE TOKYO_WIND TOKYO_PRES TOKYO_R50_DIR TOKYO_R50_LONG TOKYO_R50_SHORT TOKYO_R30_DIR TOKYO_R30_LONG TOKYO_R30_SHORT TOKYO_LAND CMA_LAT CMA_LON CMA_CAT CMA_WIND CMA_PRES HKO_LAT HKO_LON HKO_CAT HKO_WIND HKO_PRES NEWDELHI_LAT NEWDELHI_LON NEWDELHI_GRADE NEWDELHI_WIND NEWDELHI_PRES NEWDELHI_CI NEWDELHI_DP NEWDELHI_POCI REUNION_LAT REUNION_LON REUNION_TYPE REUNION_WIND REUNION_PRES REUNION_TNUM REUNION_CI REUNION_RMW REUNION_R34_NE REUNION_R34_SE REUNION_R34_SW REUNION_R34_NW REUNION_R50_NE REUNION_R50_SE REUNION_R50_SW REUNION_R50_NW REUNION_R64_NE REUNION_R64_SE REUNION_R64_SW REUNION_R64_NW BOM_LAT BOM_LON BOM_TYPE BOM_WIND BOM_PRES BOM_TNUM BOM_CI BOM_RMW BOM_R34_NE BOM_R34_SE BOM_R34_SW BOM_R34_NW BOM_R50_NE BOM_R50_SE BOM_R50_SW BOM_R50_NW BOM_R64_NE BOM_R64_SE BOM_R64_SW BOM_R64_NW BOM_ROCI BOM_POCI BOM_EYE BOM_POS_METHOD BOM_PRES_METHOD NADI_LAT NADI_LON NADI_CAT NADI_WIND NADI_PRES WELLINGTON_LAT WELLINGTON_LON WELLINGTON_WIND WELLINGTON_PRES DS824_LAT DS824_LON DS824_STAGE DS824_WIND DS824_PRES TD9636_LAT TD9636_LON TD9636_STAGE TD9636_WIND TD9636_PRES TD9635_LAT TD9635_LON TD9635_WIND TD9635_PRES TD9635_ROCI NEUMANN_LAT NEUMANN_LON NEUMANN_CLASS NEUMANN_WIND NEUMANN_PRES MLC_LAT MLC_LON MLC_CLASS MLC_WIND MLC_PRES USA_GUST BOM_GUST BOM_GUST_PER REUNION_GUST REUNION_GUST_PER USA_SEAHGT USA_SEARAD_NE USA_SEARAD_SE USA_SEARAD_SW USA_SEARAD_NW STORM_SPEED STORM_DIR
1951216N11266 1951 51 EP MM NOT_NAMED 1951-08-03 12:00:00 TS 10.6000 -94.5000 45 hurdat_epa main 498 496 O________OO___ hurdat_epa EP051951 10.6000 -94.5000 TS 45 0 10.6000 -94.5000 TC 45 10.6000 -94.5000 2 10 294
1951216N11266 1951 51 EP MM NOT_NAMED 1951-08-03 15:00:00 TS 10.7953 -94.9561 main 513 511 P________PP___ EP051951 10.7876 -94.9574 TS 45 0 10.7876 -94.9574 TC 45 10.8257 -94.9510 2 10 295
1951216N11266 1951 51 EP MM NOT_NAMED 1951-08-03 18:00:00 TS 11.0102 -95.3984 45 hurdat_epa main 523 500 O________OP___ hurdat_epa EP051951 11.0000 -95.4000 TS 45 0 11.0000 -95.4000 TC 45 11.0509 -95.3919 2 10 299
1951216N11266 1951 51 EP MM NOT_NAMED 1951-08-03 21:00:00 TS 11.2551 -95.8144 main 489 461 P________PP___ EP051951 11.2499 -95.8150 TS 45 0 11.2499 -95.8150 TC 45 11.2756 -95.8118 2 9 302
1951216N11266 1951 51 EP MM NOT_NAMED 1951-08-04 00:00:00 TS 11.5000 -96.2000 45 hurdat_epa main 461 436 O________OO___ hurdat_epa EP051951 11.5000 -96.2000 TS 45 0 11.5000 -96.2000 TC 45 11.5000 -96.2000 2 9 302
1951216N11266 1951 51 EP MM NOT_NAMED 1951-08-04 03:00:00 TS 11.7105 -96.5507 main 436 414 P________PP___ EP051951 11.7074 -96.5501 TS 45 0 11.7074 -96.5501 TC 45 11.7228 -96.5531 2 8 301
1951216N11266 1951 51 EP MM NOT_NAMED 1951-08-04 06:00:00 TS 11.9073 -96.8996 45 hurdat_epa main 415 397 O________OP___ hurdat_epa EP051951 11.9000 -96.9000 TS 45 0 11.9000 -96.9000 TC 45 11.9365 -96.8978 2 8 300
1951216N11266 1951 51 EP MM NOT_NAMED 1951-08-04 09:00:00 TS 12.1183 -97.2757 main 399 384 P________PP___ EP051951 12.1149 -97.2775 TS 45 0 12.1149 -97.2775 TC 45 12.1320 -97.2687 2 9 297
1951216N11266 1951 51 EP MM NOT_NAMED 1951-08-04 12:00:00 TS 12.3000 -97.7000 45 hurdat_epa main 388 384 O________OO___ hurdat_epa EP051951 12.3000 -97.7000 TS 45 0 12.3000 -97.7000 TC 45 12.3000 -97.7000 2 9 289
1951216N11266 1951 51 EP MM NOT_NAMED 1951-08-04 15:00:00 TS 12.4150 -98.1608 main 397 397 P________PP___ EP051951 12.4148 -98.1551 TS 45 0 12.4148 -98.1551 TC 45 12.4158 -98.1834 2 10 282
1951216N11266 1951 51 EP MM NOT_NAMED 1951-08-04 18:00:00 TS 12.5012 -98.7073 45 hurdat_epa main 403 402 O________OP___ hurdat_epa EP051951 12.5000 -98.7000 TS 45 0 12.5000 -98.7000 TC 45 12.5062 -98.7364 2 12 279
1951216N11266 1951 51 EP MM NOT_NAMED 1951-08-04 21:00:00 TS 12.5985 -99.3463 main 413 413 P________PP___ EP051951 12.5998 -99.3401 TS 45 0 12.5998 -99.3401 TC 45 12.5935 -99.3711 2 14 278
1951216N11266 1951 51 EP MM NOT_NAMED 1951-08-05 00:00:00 TS 12.7000 -100.100 45 hurdat_epa main 434 434 O________OO___ hurdat_epa EP051951 12.7000 -100.100 TS 45 0 12.7000 -100.100 TC 45 12.7000 -100.100 2 16 277
1951216N11266 1951 51 EP MM NOT_NAMED 1951-08-05 03:00:00 TS 12.7846 -100.958 main 458 458 P________PP___ EP051951 12.7774 -100.963 TS 45 0 12.7774 -100.963 TC 45 12.8135 -100.941 2 18 277
1951216N11266 1951 51 EP MM NOT_NAMED 1951-08-05 06:00:00 TS 12.9107 -101.894 45 hurdat_epa main 486 486 O________OP___ hurdat_epa EP051951 12.9000 -101.900 TS 45 0 12.9000 -101.900 TC 45 12.9534 -101.869 2 19 280
1951216N11266 1951 51 EP MM NOT_NAMED 1951-08-05 09:00:00 TS 13.1121 -102.848 main 504 502 P________PP___ EP051951 13.1048 -102.850 TS 45 0 13.1048 -102.850 TC 45 13.1414 -102.838 2 19 285
1951216N11266 1951 51 EP MM NOT_NAMED 1951-08-05 12:00:00 TS 13.4000 -103.800 45 hurdat_epa main 523 521 O________OO___ hurdat_epa EP051951 13.4000 -103.800 TS 45 0 13.4000 -103.800 TC 45 13.4000 -103.800 2 19 290
1951216N11266 1951 51 EP MM NOT_NAMED 1951-08-05 15:00:00 TS 13.7654 -104.715 main 517 510 P________PP___ EP051951 13.7697 -104.715 TS 45 0 13.7697 -104.715 TC 45 13.7485 -104.713 2 19 294
1951216N11266 1951 51 EP MM NOT_NAMED 1951-08-05 18:00:00 TS 14.1934 -105.602 45 hurdat_epa main 510 505 O________OP___ hurdat_epa EP051951 14.2000 -105.600 TS 45 0 14.2000 -105.600 TC 45 14.1669 -105.609 2 19 297
1951216N11266 1951 51 EP MM NOT_NAMED 1951-08-05 21:00:00 TS 14.6392 -106.473 main 523 514 P________PP___ EP051951 14.6423 -106.473 TS 45 0 14.6423 -106.473 TC 45 14.6268 -106.476 2 19 299
1951216N11266 1951 51 EP MM NOT_NAMED 1951-08-06 00:00:00 TS 15.1000 -107.300 45 hurdat_epa main 530 524 O________OO___ hurdat_epa EP051951 15.1000 -107.300 TS 45 0 15.1000 -107.300 TC 45 15.1000 -107.300 2 18 301
1951216N11266 1951 51 EP MM NOT_NAMED 1951-08-06 03:00:00 TS 15.5579 -108.079 main 533 532 P________PP___ EP051951 15.5497 -108.073 TS 45 0 15.5497 -108.073 TC 45 15.5908 -108.104 2 17 302
1951216N11266 1951 51 EP MM NOT_NAMED 1951-08-06 06:00:00 TS 16.0163 -108.812 45 hurdat_epa main 553 553 O________OP___ hurdat_epa EP051951 16.0000 -108.800 TS 45 0 16.0000 -108.800 TC 45 16.0817 -108.861 2 17 304
1951216N11266 1951 51 EP MM NOT_NAMED 1951-08-06 09:00:00 TS 16.4963 -109.542 main 570 570 P________PP___ EP051951 16.4874 -109.537 TS 45 0 16.4874 -109.537 TC 45 16.5317 -109.563 2 16 304
1951216N11266 1951 51 EP MM NOT_NAMED 1951-08-06 12:00:00 TS 16.9000 -110.200 45 hurdat_epa main 604 604 O________OO___ hurdat_epa EP051951 16.9000 -110.200 TS 45 0 16.9000 -110.200 TC 45 16.9000 -110.200 2 13 300
1951216N11266 1951 51 EP MM NOT_NAMED 1951-08-06 15:00:00 TS 17.1534 -110.729 main 631 631 P________PP___ EP051951 17.1521 -110.730 TS 45 0 17.1521 -110.730 TC 45 17.1584 -110.722 2 10 293
1951216N11266 1951 51 EP MM NOT_NAMED 1951-08-06 18:00:00 TS 17.3064 -111.197 45 hurdat_epa main 638 629 O________OP___ hurdat_epa EP051951 17.3000 -111.200 TS 45 0 17.3000 -111.200 TC 45 17.3318 -111.187 2 9 287
1951216N11266 1951 51 EP MM NOT_NAMED 1951-08-06 21:00:00 TS 17.4315 -111.656 main 640 632 P________PP___ EP051951 17.4295 -111.655 TS 45 0 17.4295 -111.655 TC 45 17.4395 -111.658 2 10 281
1951216N11266 1951 51 EP MM NOT_NAMED 1951-08-07 00:00:00 TS 17.5000 -112.200 45 hurdat_epa main 646 646 O________OO___ hurdat_epa EP051951 17.5000 -112.200 TS 45 0 17.5000 -112.200 TC 45 17.5000 -112.200 2 12 274
1951216N11266 1951 51 EP MM NOT_NAMED 1951-08-07 03:00:00 TS 17.5170 -112.954 main 680 680 P________PP___ EP051951 17.5152 -112.963 TS 45 0 17.5152 -112.963 TC 45 17.5238 -112.922 2 15 270
1951216N11266 1951 51 EP MM NOT_NAMED 1951-08-07 06:00:00 TS 17.5018 -113.783 45 hurdat_epa main 722 722 O________OP___ hurdat_epa EP051951 17.5000 -113.800 TS 45 0 17.5000 -113.800 TC 45 17.5090 -113.714 2 15 269
1951216N11266 1951 51 EP MM NOT_NAMED 1951-08-07 09:00:00 TS 17.4857 -114.563 main 771 771 P________PP___ EP051951 17.4848 -114.573 TS 45 0 17.4848 -114.573 TC 45 17.4894 -114.525 2 14 270
1951216N11266 1951 51 EP MM NOT_NAMED 1951-08-07 12:00:00 TS 17.5000 -115.300 45 hurdat_epa main 818 818 O________OO___ hurdat_epa EP051951 17.5000 -115.300 TS 45 0 17.5000 -115.300 TC 45 17.5000 -115.300 2 14 274
1951216N11266 1951 51 EP MM NOT_NAMED 1951-08-07 15:00:00 TS 17.5802 -115.976 main 861 861 P________PP___ EP051951 17.5772 -115.972 TS 45 0 17.5772 -115.972 TC 45 17.5923 -115.992 2 13 279
1951216N11266 1951 51 EP MM NOT_NAMED 1951-08-07 18:00:00 TS 17.7038 -116.608 45 hurdat_epa main 900 900 O________OP___ hurdat_epa EP051951 17.7000 -116.600 TS 45 0 17.7000 -116.600 TC 45 17.7191 -116.639 2 12 283
1951216N11266 1951 51 EP MM NOT_NAMED 1951-08-07 21:00:00 TS 17.8522 -117.232 main 925 925 P________PP___ EP051951 17.8499 -117.230 TS 45 0 17.8499 -117.230 TC 45 17.8613 -117.242 2 12 285
1951216N11266 1951 51 EP MM NOT_NAMED 1951-08-08 00:00:00 TS 18.0000 -117.800 45 hurdat_epa main 953 953 O________OO___ hurdat_epa EP051951 18.0000 -117.800 TS 45 0 18.0000 -117.800 TC 45 18.0000 -117.800 2 10 284
1951216N11266 1951 51 EP MM NOT_NAMED 1951-08-08 03:00:00 TS 18.1069 -118.270 main 977 977 P________PP___ EP051951 18.1072 -118.265 TS 45 0 18.1072 -118.265 TC 45 18.1057 -118.290 2 9 283
1951216N11266 1951 51 EP MM NOT_NAMED 1951-08-08 06:00:00 TS 18.2011 -118.709 45 hurdat_epa main 996 996 O________OP___ hurdat_epa EP051951 18.2000 -118.700 TS 45 0 18.2000 -118.700 TC 45 18.2054 -118.743 2 9 283
1951216N11266 1951 51 EP MM NOT_NAMED 1951-08-08 09:00:00 TS 18.3003 -119.176 main 1024 1024 P________PP___ EP051951 18.2997 -119.170 TS 45 0 18.2997 -119.170 TC 45 18.3025 -119.200 2 10 282
1951216N11266 1951 51 EP MM NOT_NAMED 1951-08-08 12:00:00 TS 18.4000 -119.700 45 hurdat_epa main 1054 1054 O________OO___ hurdat_epa EP051951 18.4000 -119.700 TS 45 0 18.4000 -119.700 TC 45 18.4000 -119.700 2 11 280
1951216N11266 1951 51 EP MM NOT_NAMED 1951-08-08 15:00:00 TS 18.4984 -120.323 main 1093 1093 P________PP___ EP051951 18.5000 -120.328 TS 45 0 18.5000 -120.328 TC 45 18.4921 -120.304 2 12 279
1951216N11266 1951 51 EP MM NOT_NAMED 1951-08-08 18:00:00 TS 18.5970 -120.991 45 hurdat_epa main 1142 1142 O________OP___ hurdat_epa EP051951 18.6000 -121.000 TS 45 0 18.6000 -121.000 TC 45 18.5852 -120.956 2 13 279
1951216N11266 1951 51 EP MM NOT_NAMED 1951-08-08 21:00:00 TS 18.6910 -121.652 main 1193 1193 P________PP___ EP051951 18.6924 -121.658 TS 45 0 18.6924 -121.658 TC 45 18.6857 -121.629 2 13 279
1951216N11266 1951 51 EP MM NOT_NAMED 1951-08-09 00:00:00 TS 18.8000 -122.300 45 hurdat_epa main 1238 1238 O________OO___ hurdat_epa EP051951 18.8000 -122.300 TS 45 0 18.8000 -122.300 TC 45 18.8000 -122.300 2 12 282
1951216N11266 1951 51 EP MM NOT_NAMED 1951-08-09 03:00:00 TS 18.9440 -122.910 main 1270 1262 P________PP___ EP051951 18.9422 -122.900 TS 45 0 18.9422 -122.900 TC 45 18.9516 -122.952 2 12 285
1951216N11266 1951 51 EP MM NOT_NAMED 1951-08-09 06:00:00 TS 19.1029 -123.519 45 hurdat_epa main 1293 1293 O________OP___ hurdat_epa EP051951 19.1000 -123.500 TS 45 0 19.1000 -123.500 TC 45 19.1147 -123.594 2 12 285
1951216N11266 1951 51 EP MM NOT_NAMED 1951-08-09 09:00:00 TS 19.2661 -124.175 main 1325 1325 P________PP___ EP051951 19.2651 -124.165 TS 45 0 19.2651 -124.165 TC 45 19.2704 -124.214 2 12 284
1951216N11266 1951 51 EP MM NOT_NAMED 1951-08-09 12:00:00 TS 19.4000 -124.800 45 hurdat_epa main 1361 1361 O________OO___ hurdat_epa EP051951 19.4000 -124.800 TS 45 0 19.4000 -124.800 TC 45 19.4000 -124.800 2 11 281
1951216N11266 1951 51 EP MM NOT_NAMED 1951-08-09 15:00:00 TS 19.4681 -125.324 main 1391 1391 P________PP___ EP051951 19.4647 -125.323 TS 45 0 19.4647 -125.323 TC 45 19.4817 -125.328 2 10 276
1951216N11266 1951 51 EP MM NOT_NAMED 1951-08-09 18:00:00 TS 19.5072 -125.805 45 hurdat_epa main 1430 1430 O________OP___ hurdat_epa EP051951 19.5000 -125.800 TS 45 0 19.5000 -125.800 TC 45 19.5360 -125.823 2 9 275
1951216N11266 1951 51 EP MM NOT_NAMED 1951-08-09 21:00:00 TS 19.5543 -126.295 main 1462 1462 P________PP___ EP051951 19.5498 -126.293 TS 45 0 19.5498 -126.293 TC 45 19.5724 -126.306 2 9 276
1951216N11266 1951 51 EP MM NOT_NAMED 1951-08-10 00:00:00 TS 19.6000 -126.800 45 hurdat_epa main 1502 1502 O________OO___ hurdat_epa EP051951 19.6000 -126.800 TS 45 0 19.6000 -126.800 TC 45 19.6000 -126.800 2 10 276
1951216N11266 1951 51 EP MM NOT_NAMED 1951-08-10 03:00:00 TS 19.6512 -127.338 main 1536 1536 P________PP___ EP051951 19.6574 -127.342 TS 45 0 19.6574 -127.342 TC 45 19.6262 -127.321 2 10 275
1951216N11266 1951 51 EP MM NOT_NAMED 1951-08-10 06:00:00 TS 19.6904 -127.893 45 hurdat_epa main 1586 1586 O________OP___ hurdat_epa EP051951 19.7000 -127.900 TS 45 0 19.7000 -127.900 TC 45 19.6519 -127.867 2 10 273
1951216N11266 1951 51 EP MM NOT_NAMED 1951-08-10 09:00:00 TS 19.7036 -128.448 main 1628 1628 P________PP___ EP051951 19.7103 -128.453 TS 45 0 19.7103 -128.453 TC 45 19.6767 -128.429 2 10 271
1951216N11266 1951 51 EP MM NOT_NAMED 1951-08-10 12:00:00 TS 19.7000 -129.000 45 hurdat_epa main 1679 O________OO___ hurdat_epa EP051951 19.7000 -129.000 TS 45 0 19.7000 -129.000 TC 45 19.7000 -129.000 2 10 270

About IBTrACS Database

This database is a web-friendly format of International Best Track Archive for Climate Stewardship (IBTrACS), a global best track data archive curated by NOAA dating back to 1842.

Updated: 2021-11-26